Time;durP1;ratioP1;P1;durP2;ratioP2;P2;SDS_P1;SDS_P2;PMS_P1;PMS_P2;Temp;Humidity;BMP_temperature;BMP_pressure;BME280_temperature;BME280_humidity;BME280_pressure;Samples;Min_cycle;Max_cycle;Signal;HPM_P1;HPM_P2
2021/03/27 00:00:57;;;;;;;8.70;5.57;;;12.30;49.90;;;;;;5028340;28;37324;-87
2021/03/27 00:03:30;;;;;;;6.30;4.87;;;12.30;50.30;;;;;;5023322;28;39651;-86
2021/03/27 00:06:06;;;;;;;7.10;4.80;;;12.20;50.70;;;;;;5048488;28;39149;-87
2021/03/27 00:08:44;;;;;;;6.30;5.07;;;12.20;50.90;;;;;;5041497;28;39341;-89
2021/03/27 00:11:17;;;;;;;8.63;5.70;;;12.10;50.80;;;;;;5030806;28;38081;-85
2021/03/27 00:13:56;;;;;;;10.57;5.57;;;12.00;51.30;;;;;;5025534;28;40690;-87
2021/03/27 00:16:30;;;;;;;8.47;5.90;;;12.00;51.60;;;;;;5039170;28;38365;-94
2021/03/27 00:19:08;;;;;;;7.43;5.07;;;12.00;50.90;;;;;;5028793;28;36795;-93
2021/03/27 00:21:42;;;;;;;8.30;5.00;;;12.00;50.90;;;;;;5014616;28;35870;-95
2021/03/27 00:24:15;;;;;;;9.27;5.37;;;12.00;50.90;;;;;;5018612;28;38539;-94
2021/03/27 00:26:46;;;;;;;4.83;4.23;;;11.90;52.30;;;;;;5021659;28;38826;-93
2021/03/27 00:29:19;;;;;;;5.77;4.33;;;11.90;52.20;;;;;;5013685;28;36640;-96
2021/03/27 00:31:51;;;;;;;3.47;3.17;;;11.60;51.40;;;;;;5025226;28;35781;-94
2021/03/27 00:34:26;;;;;;;4.10;3.70;;;11.50;51.70;;;;;;5034642;28;39133;-95
2021/03/27 00:36:58;;;;;;;5.27;3.43;;;11.50;52.60;;;;;;5029349;28;38659;-96
2021/03/27 00:39:30;;;;;;;3.60;2.73;;;11.50;52.20;;;;;;5034085;28;36545;-95
2021/03/27 00:42:01;;;;;;;4.27;2.97;;;11.50;51.60;;;;;;5014922;28;36445;-93
2021/03/27 00:44:33;;;;;;;3.30;3.00;;;11.50;51.70;;;;;;5033422;28;39641;-94
2021/03/27 00:47:03;;;;;;;3.80;3.10;;;11.50;52.70;;;;;;5019017;28;37803;-94
2021/03/27 00:49:36;;;;;;;4.40;2.90;;;11.50;52.20;;;;;;5016864;28;36591;-94
2021/03/27 00:52:13;;;;;;;2.63;2.43;;;11.50;52.00;;;;;;5010987;28;37228;-86
2021/03/27 00:54:45;;;;;;;3.63;2.50;;;11.50;51.40;;;;;;5034738;28;38333;-93
2021/03/27 00:57:17;;;;;;;4.53;2.43;;;11.40;51.50;;;;;;5019348;28;36865;-95
2021/03/27 00:59:57;;;;;;;3.80;2.83;;;11.40;50.70;;;;;;5032639;28;37232;-86
2021/03/27 01:02:33;;;;;;;2.93;2.63;;;11.50;51.20;;;;;;5034137;28;36189;-89
2021/03/27 01:05:33;;;;;;;4.90;2.73;;;11.50;50.90;;;;;;5016688;28;40093;-93
2021/03/27 01:08:22;;;;;;;3.03;2.60;;;11.50;50.40;;;;;;5032269;28;40061;-92
2021/03/27 01:11:12;;;;;;;4.07;2.00;;;11.50;50.40;;;;;;5031226;28;39762;-92
2021/03/27 01:13:49;;;;;;;3.23;2.53;;;11.50;50.00;;;;;;5027053;28;37318;-93
2021/03/27 01:16:20;;;;;;;2.90;2.30;;;11.40;50.30;;;;;;5021681;28;38436;-94
2021/03/27 01:18:52;;;;;;;4.40;2.30;;;11.40;49.30;;;;;;5033130;28;39128;-93
2021/03/27 01:21:25;;;;;;;2.63;2.10;;;11.40;49.70;;;;;;5019592;28;37888;-92
2021/03/27 01:23:55;;;;;;;3.67;2.40;;;11.30;48.80;;;;;;5031381;28;36895;-92
2021/03/27 01:26:26;;;;;;;2.20;2.00;;;11.30;48.70;;;;;;5017723;28;38548;-91
2021/03/27 01:28:59;;;;;;;2.73;2.43;;;11.30;48.80;;;;;;5014715;28;37856;-93
2021/03/27 01:31:39;;;;;;;2.20;1.87;;;11.30;48.50;;;;;;5043932;28;36466;-93
2021/03/27 01:34:15;;;;;;;2.20;1.93;;;11.40;48.30;;;;;;5041508;28;36442;-92
2021/03/27 01:36:50;;;;;;;3.07;2.40;;;11.40;48.10;;;;;;5030899;28;39544;-94
2021/03/27 01:39:23;;;;;;;2.07;1.87;;;11.50;47.70;;;;;;5015613;28;38615;-92
2021/03/27 01:42:00;;;;;;;2.80;1.90;;;11.50;47.60;;;;;;5030328;28;36846;-93
2021/03/27 01:44:44;;;;;;;2.17;1.90;;;11.60;47.70;;;;;;5012243;28;36086;-94
2021/03/27 01:47:18;;;;;;;2.90;2.00;;;11.60;48.10;;;;;;5033253;28;38327;-93
2021/03/27 01:50:05;;;;;;;2.33;1.60;;;11.70;48.20;;;;;;5007866;28;37531;-93
2021/03/27 01:52:55;;;;;;;2.30;1.53;;;11.60;47.90;;;;;;5011328;28;37008;-95
2021/03/27 01:55:37;;;;;;;2.40;2.20;;;11.60;47.40;;;;;;5013713;28;35782;-92
2021/03/27 01:58:12;;;;;;;2.53;1.83;;;11.70;48.20;;;;;;5023156;28;38549;-94
2021/03/27 02:00:46;;;;;;;1.73;1.50;;;11.80;49.40;;;;;;5016520;28;37632;-94
2021/03/27 02:03:18;;;;;;;1.80;1.60;;;11.70;49.10;;;;;;5017613;28;36628;-94
2021/03/27 02:05:53;;;;;;;2.13;1.80;;;11.60;49.60;;;;;;5038537;28;37541;-94
2021/03/27 02:08:38;;;;;;;1.60;1.43;;;11.60;50.50;;;;;;5036824;28;38714;-94
2021/03/27 02:11:09;;;;;;;2.60;1.70;;;11.60;51.10;;;;;;5039591;28;37814;-94
2021/03/27 02:13:44;;;;;;;2.70;2.30;;;11.50;51.60;;;;;;5031098;28;37505;-93
2021/03/27 02:16:21;;;;;;;2.50;2.20;;;11.50;52.10;;;;;;5018294;28;37136;-93
2021/03/27 02:19:03;;;;;;;2.53;1.80;;;11.60;52.30;;;;;;5017749;28;38115;-94
2021/03/27 02:21:53;;;;;;;2.10;1.90;;;11.40;52.70;;;;;;5024166;28;37946;-93
2021/03/27 02:24:37;;;;;;;2.27;2.00;;;11.40;53.40;;;;;;5035608;28;36762;-94
2021/03/27 02:27:10;;;;;;;3.63;2.47;;;11.50;53.80;;;;;;5036680;28;36069;-94
2021/03/27 02:29:57;;;;;;;2.60;2.23;;;11.40;54.30;;;;;;5035898;28;39695;-96
2021/03/27 02:32:41;;;;;;;3.10;2.80;;;11.30;54.80;;;;;;5017272;28;38748;-96
2021/03/27 02:35:14;;;;;;;4.20;2.40;;;11.30;55.10;;;;;;5019275;28;37984;-95
2021/03/27 02:37:58;;;;;;;3.37;2.53;;;11.20;56.20;;;;;;5020363;28;36942;-96
2021/03/27 02:40:33;;;;;;;4.50;3.17;;;11.10;56.70;;;;;;5021857;28;38493;-96
2021/03/27 02:43:05;;;;;;;4.10;2.77;;;11.10;57.30;;;;;;5016303;28;37945;-96
2021/03/27 02:45:38;;;;;;;2.90;2.53;;;11.00;57.90;;;;;;5031114;28;38743;-96
2021/03/27 02:48:20;;;;;;;3.43;2.60;;;11.00;58.20;;;;;;5035666;28;37118;-94
2021/03/27 02:51:03;;;;;;;3.33;2.97;;;10.90;58.70;;;;;;5025643;28;38582;-94
2021/03/27 02:53:42;;;;;;;3.93;3.00;;;10.80;59.30;;;;;;5019052;28;37972;-94
2021/03/27 02:56:24;;;;;;;4.20;3.13;;;10.80;59.70;;;;;;5037966;28;36273;-94
2021/03/27 02:59:16;;;;;;;6.03;4.13;;;10.80;60.00;;;;;;5042033;28;37399;-94
2021/03/27 03:01:51;;;;;;;4.53;3.67;;;10.60;61.60;;;;;;5051383;28;37604;-94
2021/03/27 03:04:28;;;;;;;5.30;3.90;;;10.60;61.30;;;;;;5038457;28;39312;-94
2021/03/27 03:07:03;;;;;;;5.27;3.50;;;10.50;61.90;;;;;;5047615;28;38142;-94
2021/03/27 03:09:36;;;;;;;4.13;3.73;;;10.40;62.30;;;;;;5038427;28;36921;-94
2021/03/27 03:12:12;;;;;;;6.60;2.87;;;10.30;62.20;;;;;;5030188;28;39908;-93
2021/03/27 03:14:50;;;;;;;2.70;2.33;;;10.10;61.20;;;;;;5022601;28;38168;-92
2021/03/27 03:17:26;;;;;;;3.00;2.70;;;10.10;61.10;;;;;;4988587;28;37934;-93
2021/03/27 03:19:57;;;;;;;2.57;2.30;;;10.10;60.60;;;;;;4995803;28;37041;-93
2021/03/27 03:22:34;;;;;;;2.50;2.17;;;10.10;60.40;;;;;;4981766;28;38954;-95
2021/03/27 03:25:07;;;;;;;2.43;1.80;;;10.00;59.80;;;;;;4995556;28;39681;-92
2021/03/27 03:27:47;;;;;;;2.80;2.37;;;10.00;59.20;;;;;;4982445;28;37138;-94
2021/03/27 03:30:25;;;;;;;2.50;1.60;;;10.00;58.90;;;;;;4997795;28;36120;-93
2021/03/27 03:33:20;;;;;;;3.13;1.60;;;10.10;58.80;;;;;;4997908;28;38165;-93
2021/03/27 03:35:52;;;;;;;3.70;1.80;;;10.00;57.60;;;;;;5010186;28;38492;-93
2021/03/27 03:38:40;;;;;;;2.37;1.73;;;10.00;57.60;;;;;;5016508;28;37636;-92
2021/03/27 03:41:13;;;;;;;2.37;1.67;;;9.90;58.50;;;;;;5006374;28;36532;-92
2021/03/27 03:43:49;;;;;;;2.20;1.37;;;10.00;57.40;;;;;;5006379;28;39464;-93
2021/03/27 03:46:43;;;;;;;2.30;1.63;;;10.10;56.80;;;;;;4979107;28;39367;-92
2021/03/27 03:49:48;;;;;;;1.60;1.40;;;10.10;56.70;;;;;;4992051;28;39488;-94
2021/03/27 03:52:53;;;;;;;3.33;1.53;;;10.10;56.10;;;;;;4988425;28;35751;-93
2021/03/27 03:55:32;;;;;;;2.80;1.40;;;10.10;56.30;;;;;;4980383;28;39797;-94
2021/03/27 03:58:47;;;;;;;1.73;1.50;;;10.20;55.60;;;;;;4988226;28;37776;-92
2021/03/27 04:01:22;;;;;;;1.90;1.40;;;10.10;54.80;;;;;;4967392;28;36561;-92
2021/03/27 04:03:58;;;;;;;1.93;1.70;;;10.20;54.20;;;;;;4977723;28;35478;-95
2021/03/27 04:06:29;;;;;;;2.37;1.70;;;10.30;54.70;;;;;;4974858;28;39506;-94
2021/03/27 04:09:01;;;;;;;4.00;1.73;;;10.20;54.90;;;;;;4977266;28;38016;-94
2021/03/27 04:11:53;;;;;;;3.30;2.40;;;10.30;55.80;;;;;;4998602;28;36886;-94
2021/03/27 04:14:44;;;;;;;3.10;2.07;;;10.30;56.60;;;;;;5035809;28;35943;-94
2021/03/27 04:17:20;;;;;;;4.50;2.00;;;10.10;57.70;;;;;;5014718;28;38816;-86
2021/03/27 04:19:52;;;;;;;1.97;1.70;;;10.00;58.60;;;;;;5029719;28;37970;-90
2021/03/27 04:22:27;;;;;;;2.23;1.20;;;9.60;59.60;;;;;;5027216;28;36894;-94
2021/03/27 04:25:11;;;;;;;1.30;1.00;;;9.30;58.80;;;;;;5018751;28;35948;-93
2021/03/27 04:27:46;;;;;;;1.57;1.07;;;9.10;59.20;;;;;;5036841;28;38669;-93
2021/03/27 04:30:26;;;;;;;1.87;1.00;;;8.90;59.30;;;;;;5019448;28;37397;-92
2021/03/27 04:33:03;;;;;;;0.83;0.70;;;8.60;58.80;;;;;;5017945;28;38170;-93
2021/03/27 04:35:54;;;;;;;0.73;0.60;;;8.50;59.00;;;;;;5022695;28;35783;-91
2021/03/27 04:38:31;;;;;;;1.47;0.80;;;8.40;59.50;;;;;;5028177;28;41065;-92
2021/03/27 04:41:07;;;;;;;2.10;1.50;;;8.30;59.80;;;;;;5025898;28;37894;-92
2021/03/27 04:43:40;;;;;;;1.40;1.00;;;8.20;59.70;;;;;;5014874;28;36955;-93
2021/03/27 04:46:14;;;;;;;3.00;1.37;;;8.20;60.30;;;;;;5030988;28;35908;-93
2021/03/27 04:48:44;;;;;;;2.00;1.00;;;8.20;60.70;;;;;;5015642;28;39562;-93
2021/03/27 04:51:48;;;;;;;2.50;0.80;;;8.10;60.30;;;;;;5023457;28;37823;-93
2021/03/27 04:54:34;;;;;;;1.17;0.80;;;8.10;60.30;;;;;;5003185;28;38307;-93
2021/03/27 04:57:14;;;;;;;3.60;1.43;;;8.10;60.60;;;;;;4998226;28;35993;-92
2021/03/27 04:59:54;;;;;;;1.20;0.80;;;8.20;60.90;;;;;;5015429;28;39688;-94
2021/03/27 05:02:33;;;;;;;1.03;0.80;;;8.20;61.10;;;;;;5025442;28;39372;-94
2021/03/27 05:05:04;;;;;;;0.90;0.80;;;8.30;61.40;;;;;;5003581;28;36613;-94
2021/03/27 05:07:41;;;;;;;0.87;0.80;;;8.40;61.50;;;;;;5033594;28;37254;-93
2021/03/27 05:10:15;;;;;;;1.23;0.80;;;8.30;61.40;;;;;;5014488;28;39300;-94
2021/03/27 05:13:10;;;;;;;1.43;0.90;;;8.30;61.00;;;;;;5013750;28;38793;-93
2021/03/27 05:15:47;;;;;;;1.20;0.80;;;8.40;61.00;;;;;;5003481;28;37791;-95
2021/03/27 05:18:37;;;;;;;2.90;0.83;;;8.30;60.20;;;;;;5032882;28;35657;-95
2021/03/27 05:21:13;;;;;;;0.90;0.70;;;8.20;59.10;;;;;;5015348;28;38210;-94
2021/03/27 05:23:54;;;;;;;1.43;0.97;;;8.10;58.00;;;;;;5015446;28;38627;-91
2021/03/27 05:26:31;;;;;;;1.50;1.20;;;8.20;57.10;;;;;;5012961;28;36787;-93
2021/03/27 05:29:30;;;;;;;2.40;1.00;;;8.20;56.30;;;;;;5023693;28;36177;-94
2021/03/27 05:32:07;;;;;;;1.00;0.90;;;8.20;56.10;;;;;;5003780;28;38197;-92
2021/03/27 05:34:40;;;;;;;3.13;2.83;;;8.30;55.70;;;;;;5031416;28;39580;-94
2021/03/27 05:37:37;;;;;;;1.83;1.47;;;8.30;55.80;;;;;;5023376;28;36772;-88
2021/03/27 05:40:41;;;;;;;1.57;1.07;;;8.30;54.90;;;;;;5033448;28;36961;-93
2021/03/27 05:43:29;;;;;;;1.57;1.00;;;8.30;54.70;;;;;;5014421;28;39408;-94
2021/03/27 05:46:42;;;;;;;1.40;0.90;;;8.40;54.30;;;;;;5014140;28;37658;-95
2021/03/27 05:49:40;;;;;;;0.90;0.70;;;8.40;54.20;;;;;;5032977;28;36685;-95
2021/03/27 05:52:34;;;;;;;1.53;0.63;;;8.40;53.00;;;;;;5030237;28;37354;-91
2021/03/27 05:55:39;;;;;;;2.70;1.40;;;8.40;53.30;;;;;;5027553;28;39496;-94
2021/03/27 05:58:38;;;;;;;1.00;0.60;;;8.40;53.40;;;;;;5030352;28;38767;-89
2021/03/27 06:01:46;;;;;;;0.90;0.67;;;8.40;53.00;;;;;;5027261;28;37129;-91
2021/03/27 06:04:48;;;;;;;0.70;0.50;;;8.40;51.70;;;;;;5012995;28;37305;-96
2021/03/27 06:07:58;;;;;;;0.80;0.60;;;8.50;51.40;;;;;;5009798;28;39596;-96
2021/03/27 06:10:45;;;;;;;1.10;0.70;;;8.50;50.80;;;;;;5019817;28;40157;-95
2021/03/27 06:13:47;;;;;;;0.97;0.67;;;8.60;50.70;;;;;;5025529;28;36260;-94
2021/03/27 06:16:57;;;;;;;1.97;1.00;;;8.50;50.40;;;;;;5027665;28;37016;-96
2021/03/27 06:20:31;;;;;;;1.60;0.80;;;8.50;50.90;;;;;;5048373;28;39762;-96
2021/03/27 06:23:46;;;;;;;0.90;0.70;;;8.50;50.20;;;;;;5025818;28;38435;-96
2021/03/27 06:26:50;;;;;;;1.10;0.63;;;8.60;49.70;;;;;;5000413;28;38449;-96
2021/03/27 06:30:01;;;;;;;0.80;0.60;;;8.70;48.30;;;;;;5020129;28;35990;-96
2021/03/27 06:33:06;;;;;;;0.80;0.60;;;8.70;47.60;;;;;;5036686;28;38414;-96
2021/03/27 06:35:55;;;;;;;0.90;0.60;;;8.70;47.50;;;;;;5009969;28;39526;-95
2021/03/27 06:39:00;;;;;;;0.80;0.50;;;8.70;46.70;;;;;;5017668;28;36938;-96
2021/03/27 06:42:12;;;;;;;1.00;0.70;;;8.90;46.50;;;;;;5018757;28;38428;-95
2021/03/27 06:45:14;;;;;;;1.13;0.70;;;9.10;46.60;;;;;;5011890;28;39871;-88
2021/03/27 06:48:27;;;;;;;2.13;0.60;;;9.30;45.60;;;;;;5015216;28;39037;-90
2021/03/27 06:51:34;;;;;;;0.73;0.60;;;9.70;45.30;;;;;;5014003;28;36846;-90
2021/03/27 06:54:35;;;;;;;0.80;0.50;;;10.60;43.80;;;;;;5029167;28;35743;-91
2021/03/27 06:57:13;;;;;;;1.00;0.60;;;12.60;41.60;;;;;;4996319;28;40266;-91
2021/03/27 07:00:22;;;;;;;1.50;0.87;;;15.60;36.30;;;;;;5031855;28;37920;-92
2021/03/27 07:03:37;;;;;;;0.90;0.60;;;18.80;31.30;;;;;;5014042;28;38089;-92
2021/03/27 07:06:35;;;;;;;1.10;0.60;;;21.30;27.90;;;;;;4953244;28;36295;-92
2021/03/27 07:09:52;;;;;;;1.47;0.90;;;23.20;26.20;;;;;;5026836;28;39322;-93
2021/03/27 07:12:39;;;;;;;2.50;0.70;;;24.80;24.40;;;;;;5009103;28;37702;-91
2021/03/27 07:15:48;;;;;;;15.13;1.10;;;25.70;22.90;;;;;;5007007;28;38029;-90
2021/03/27 07:18:43;;;;;;;0.90;0.50;;;21.80;24.50;;;;;;5025684;28;37502;-90
2021/03/27 07:21:46;;;;;;;2.00;0.60;;;20.40;27.10;;;;;;5012125;28;38538;-91
2021/03/27 07:24:40;;;;;;;1.67;0.97;;;21.20;25.90;;;;;;5012574;28;37984;-92
2021/03/27 07:27:50;;;;;;;3.13;0.83;;;22.00;24.70;;;;;;4997024;28;37189;-91
2021/03/27 07:30:33;;;;;;;0.70;0.50;;;20.80;25.00;;;;;;5013268;28;35831;-90
2021/03/27 07:33:42;;;;;;;1.60;0.70;;;18.60;26.80;;;;;;5008077;28;38644;-90
2021/03/27 07:36:56;;;;;;;4.60;1.00;;;16.50;29.50;;;;;;5012647;28;38620;-90
2021/03/27 07:39:53;;;;;;;1.43;0.90;;;14.50;33.90;;;;;;5026209;28;37772;-92
2021/03/27 07:42:47;;;;;;;1.40;1.20;;;15.50;33.20;;;;;;5027300;28;35947;-87
2021/03/27 07:45:36;;;;;;;1.57;0.60;;;18.40;28.60;;;;;;5003659;28;39897;-87
2021/03/27 07:48:29;;;;;;;1.40;0.70;;;20.10;26.10;;;;;;5015189;28;37808;-86
2021/03/27 07:51:06;;;;;;;2.33;0.60;;;22.30;24.40;;;;;;5025927;28;38634;-86
2021/03/27 07:54:22;;;;;;;2.03;0.80;;;22.50;23.00;;;;;;5028475;28;40640;-87
2021/03/27 07:57:20;;;;;;;0.80;0.50;;;23.40;21.80;;;;;;5015172;28;40800;-87
2021/03/27 08:00:13;;;;;;;2.00;0.73;;;24.20;21.90;;;;;;5033675;28;39230;-86
2021/03/27 08:03:06;;;;;;;3.53;1.10;;;25.50;20.90;;;;;;5008931;28;37960;-91
2021/03/27 08:06:13;;;;;;;1.47;0.80;;;25.90;20.20;;;;;;5031535;28;36999;-90
2021/03/27 08:09:16;;;;;;;2.03;0.70;;;25.90;19.90;;;;;;5003560;28;40704;-90
2021/03/27 08:12:17;;;;;;;4.40;0.80;;;27.40;19.00;;;;;;5024364;28;37614;-87
2021/03/27 08:15:20;;;;;;;1.37;0.87;;;27.50;18.20;;;;;;5026076;28;37890;-89
2021/03/27 08:18:06;;;;;;;2.80;0.80;;;27.00;18.30;;;;;;5019811;28;36230;-87
2021/03/27 08:20:56;;;;;;;2.60;0.80;;;26.80;18.30;;;;;;5012666;28;39830;-86
2021/03/27 08:23:46;;;;;;;2.37;1.53;;;26.70;17.80;;;;;;5035110;28;37558;-89
2021/03/27 08:26:44;;;;;;;4.50;0.97;;;26.30;17.80;;;;;;5029126;28;38333;-85
2021/03/27 08:29:47;;;;;;;2.33;0.70;;;26.50;17.50;;;;;;5028774;28;37436;-86
2021/03/27 08:32:39;;;;;;;1.77;0.70;;;24.10;18.70;;;;;;5030084;28;40344;-88
2021/03/27 08:35:23;;;;;;;2.13;0.63;;;24.10;19.50;;;;;;5024324;28;39629;-87
2021/03/27 08:38:18;;;;;;;2.10;0.60;;;25.80;18.10;;;;;;5014178;28;36876;-87
2021/03/27 08:41:11;;;;;;;1.40;0.70;;;24.40;17.20;;;;;;5017437;28;35949;-87
2021/03/27 08:44:11;;;;;;;3.40;0.87;;;24.20;18.10;;;;;;5021555;28;39846;-87
2021/03/27 08:46:51;;;;;;;3.83;0.70;;;25.70;16.70;;;;;;5007731;28;38844;-86
2021/03/27 08:49:52;;;;;;;2.10;0.60;;;25.90;15.60;;;;;;5015946;28;36549;-86
2021/03/27 08:52:59;;;;;;;4.30;0.80;;;26.00;15.30;;;;;;5029109;28;35648;-86
2021/03/27 08:55:50;;;;;;;1.67;0.70;;;26.10;15.70;;;;;;5035529;28;39461;-86
2021/03/27 08:58:47;;;;;;;3.00;0.80;;;25.20;15.20;;;;;;5034270;28;39043;-87
2021/03/27 09:02:03;;;;;;;2.53;0.67;;;25.70;15.50;;;;;;5031767;28;37980;-89
2021/03/27 09:04:51;;;;;;;2.00;0.70;;;24.90;15.60;;;;;;5006221;28;37708;-86
2021/03/27 09:07:42;;;;;;;1.10;0.60;;;25.50;15.60;;;;;;5026458;28;38681;-86
2021/03/27 09:10:53;;;;;;;1.23;0.70;;;26.50;15.20;;;;;;5027479;28;38038;-87
2021/03/27 09:13:50;;;;;;;2.67;0.70;;;27.80;14.50;;;;;;5025693;28;36578;-87
2021/03/27 09:16:59;;;;;;;1.03;0.57;;;28.70;14.10;;;;;;5041040;28;37631;-88
2021/03/27 09:20:01;;;;;;;1.00;0.53;;;29.50;13.50;;;;;;5025323;28;40132;-87
2021/03/27 09:23:06;;;;;;;2.50;0.50;;;28.90;12.70;;;;;;5020554;28;37899;-86
2021/03/27 09:26:16;;;;;;;2.10;0.90;;;27.60;12.80;;;;;;5043398;28;38510;-86
2021/03/27 09:29:00;;;;;;;2.10;0.90;;;28.10;13.30;;;;;;5025800;28;37119;-87
2021/03/27 09:31:55;;;;;;;1.43;0.73;;;29.30;12.70;;;;;;5028278;28;39745;-86
2021/03/27 09:34:41;;;;;;;2.60;0.80;;;29.40;12.50;;;;;;5030413;28;39288;-90
2021/03/27 09:37:30;;;;;;;1.20;0.60;;;28.50;12.10;;;;;;5031371;28;37582;-90
2021/03/27 09:40:08;;;;;;;1.83;0.73;;;28.10;11.60;;;;;;5023692;28;36199;-89
2021/03/27 09:42:53;;;;;;;1.63;0.50;;;27.50;12.70;;;;;;5036948;28;39177;-89
2021/03/27 09:45:32;;;;;;;6.40;1.03;;;27.20;13.50;;;;;;5039184;28;37494;-90
2021/03/27 09:48:26;;;;;;;6.20;0.90;;;27.40;13.50;;;;;;5038655;28;37449;-89
2021/03/27 09:51:05;;;;;;;3.70;1.20;;;27.00;13.40;;;;;;5030418;28;37118;-90
2021/03/27 09:53:47;;;;;;;1.50;0.67;;;27.50;13.10;;;;;;5033678;28;39845;-90
2021/03/27 09:56:32;;;;;;;1.20;0.80;;;27.90;13.20;;;;;;5035324;28;40242;-89
2021/03/27 09:59:26;;;;;;;2.20;0.70;;;28.20;13.00;;;;;;5022692;28;36603;-88
2021/03/27 10:02:00;;;;;;;2.97;0.67;;;27.70;12.70;;;;;;5034720;28;36732;-89
2021/03/27 10:04:49;;;;;;;1.77;0.73;;;28.20;11.80;;;;;;5037984;28;39595;-89
2021/03/27 10:07:26;;;;;;;2.10;0.80;;;28.60;11.70;;;;;;5036748;28;38923;-89
2021/03/27 10:10:16;;;;;;;1.53;0.80;;;28.80;11.50;;;;;;5021590;28;37437;-88
2021/03/27 10:12:58;;;;;;;0.90;0.60;;;28.70;12.00;;;;;;5022593;28;36651;-88
2021/03/27 10:15:36;;;;;;;8.90;1.10;;;28.80;11.80;;;;;;5039451;28;39622;-89
2021/03/27 10:18:12;;;;;;;2.23;0.80;;;29.10;11.90;;;;;;5042540;28;39581;-87
2021/03/27 10:20:45;;;;;;;1.80;0.70;;;27.50;11.70;;;;;;5043672;28;39657;-91
2021/03/27 10:23:23;;;;;;;1.47;0.60;;;26.00;12.90;;;;;;5047983;28;38467;-90
2021/03/27 10:26:23;;;;;;;2.13;0.70;;;24.80;13.50;;;;;;5036939;28;38555;-91
2021/03/27 10:28:53;;;;;;;1.43;0.70;;;25.10;13.90;;;;;;5048632;28;39086;-90
2021/03/27 10:31:46;;;;;;;1.37;0.73;;;26.00;13.70;;;;;;5055797;28;38950;-91
2021/03/27 10:34:30;;;;;;;3.63;0.70;;;26.90;13.20;;;;;;5039550;28;39179;-90
2021/03/27 10:37:05;;;;;;;1.43;0.67;;;26.20;12.00;;;;;;5043886;28;40095;-91
2021/03/27 10:39:52;;;;;;;0.97;0.53;;;25.00;13.50;;;;;;5040996;28;40122;-90
2021/03/27 10:43:05;;;;;;;3.47;0.70;;;23.00;13.90;;;;;;5023918;28;36964;-91
2021/03/27 10:45:52;;;;;;;2.70;0.80;;;20.30;15.20;;;;;;5033319;28;37678;-90
2021/03/27 10:48:58;;;;;;;3.60;0.70;;;18.00;15.60;;;;;;5024851;28;38208;-90
2021/03/27 10:51:54;;;;;;;1.77;0.70;;;16.60;16.20;;;;;;5036168;28;38662;-91
2021/03/27 10:54:45;;;;;;;2.07;0.57;;;15.60;17.60;;;;;;5038993;28;39151;-91
2021/03/27 10:57:26;;;;;;;1.07;0.60;;;16.20;16.80;;;;;;5042004;28;38429;-90
2021/03/27 11:00:08;;;;;;;5.10;0.90;;;16.80;16.00;;;;;;5039810;28;39663;-90
2021/03/27 11:02:53;;;;;;;4.03;0.70;;;16.60;16.40;;;;;;5040756;28;39244;-90
2021/03/27 11:05:59;;;;;;;3.60;0.60;;;16.00;16.70;;;;;;5041474;28;38291;-90
2021/03/27 11:09:05;;;;;;;1.43;0.60;;;16.60;16.10;;;;;;5039455;28;35645;-90
2021/03/27 11:12:08;;;;;;;1.73;0.67;;;16.90;16.90;;;;;;5001326;28;40207;-90
2021/03/27 11:15:07;;;;;;;2.70;0.60;;;17.90;15.70;;;;;;5036229;28;37438;-90
2021/03/27 11:17:59;;;;;;;4.40;0.90;;;18.60;15.40;;;;;;5013556;28;37927;-91
2021/03/27 11:20:57;;;;;;;3.53;0.60;;;18.90;15.00;;;;;;5038521;28;35526;-91
2021/03/27 11:24:05;;;;;;;4.73;0.80;;;19.00;14.90;;;;;;5026181;28;39538;-90
2021/03/27 11:27:05;;;;;;;1.00;0.50;;;19.00;15.10;;;;;;5012636;28;39784;-91
2021/03/27 11:29:39;;;;;;;0.90;0.50;;;18.70;15.10;;;;;;5039139;28;37888;-91
2021/03/27 11:32:30;;;;;;;2.07;0.80;;;18.40;15.00;;;;;;5037821;28;36286;-93
2021/03/27 11:35:02;;;;;;;1.40;0.80;;;17.10;15.00;;;;;;5034061;28;38498;-90
2021/03/27 11:37:54;;;;;;;2.93;0.60;;;16.30;15.60;;;;;;5015205;28;39430;-90
2021/03/27 11:40:28;;;;;;;3.87;0.70;;;15.80;16.50;;;;;;5029631;28;38457;-88
2021/03/27 11:43:25;;;;;;;1.30;0.70;;;15.40;17.10;;;;;;5011692;28;37789;-87
2021/03/27 11:46:01;;;;;;;1.53;0.53;;;15.40;17.30;;;;;;4997362;28;40298;-88
2021/03/27 11:48:39;;;;;;;3.47;0.70;;;15.60;16.70;;;;;;5001682;28;38255;-89
2021/03/27 11:51:14;;;;;;;3.07;0.80;;;15.90;17.70;;;;;;5019476;28;38752;-88
2021/03/27 11:54:07;;;;;;;0.90;0.50;;;16.10;17.30;;;;;;5022111;28;36871;-90
2021/03/27 11:56:45;;;;;;;1.93;0.60;;;16.20;17.50;;;;;;5018249;28;38284;-91
2021/03/27 12:02:44;;;;;;;1.17;0.60;;;16.20;17.50;;;;;;5039332;28;36493;-92
2021/03/27 12:05:22;;;;;;;9.20;1.10;;;16.00;17.40;;;;;;5035040;28;36122;-90
2021/03/27 12:07:59;;;;;;;1.87;0.83;;;16.10;17.80;;;;;;5039591;28;38950;-88
2021/03/27 12:10:35;;;;;;;3.33;0.80;;;15.90;17.50;;;;;;5038310;28;38953;-90
2021/03/27 12:13:09;;;;;;;1.97;0.70;;;15.80;17.80;;;;;;5034367;28;36868;-90
2021/03/27 12:15:42;;;;;;;1.43;0.80;;;16.00;18.00;;;;;;5024243;28;37684;-90
2021/03/27 12:18:51;;;;;;;1.40;0.70;;;16.00;17.10;;;;;;5043540;28;41068;-87
2021/03/27 12:21:24;;;;;;;1.70;0.80;;;16.00;18.00;;;;;;5050002;28;39552;-84
2021/03/27 12:23:55;;;;;;;1.77;0.60;;;15.80;17.30;;;;;;5049908;28;39117;-85
2021/03/27 12:26:33;;;;;;;1.73;0.50;;;15.70;17.80;;;;;;5019131;28;36729;-84
2021/03/27 12:29:08;;;;;;;3.90;0.53;;;15.80;17.00;;;;;;5036472;28;38797;-86
2021/03/27 12:31:48;;;;;;;1.03;0.50;;;15.80;16.90;;;;;;5035569;28;40060;-84
2021/03/27 12:34:24;;;;;;;3.67;0.73;;;15.60;16.70;;;;;;5039142;28;38298;-84
2021/03/27 12:37:07;;;;;;;2.87;0.70;;;15.20;17.20;;;;;;5039443;28;37749;-85
2021/03/27 12:39:45;;;;;;;3.17;0.90;;;15.10;17.10;;;;;;5026552;28;40700;-81
2021/03/27 12:42:17;;;;;;;3.57;0.80;;;15.00;17.20;;;;;;5001100;28;38744;-81
2021/03/27 12:44:53;;;;;;;8.03;1.37;;;14.90;17.40;;;;;;5020494;28;38682;-83
2021/03/27 12:47:40;;;;;;;1.37;0.63;;;15.10;17.80;;;;;;5028243;28;37996;-83
2021/03/27 12:50:34;;;;;;;1.90;0.60;;;15.30;17.90;;;;;;5023192;28;39668;-86
2021/03/27 12:53:30;;;;;;;3.90;0.90;;;15.60;17.50;;;;;;5018688;28;38932;-88
2021/03/27 12:56:12;;;;;;;3.63;0.70;;;15.70;18.20;;;;;;5023323;28;36811;-86
2021/03/27 12:58:48;;;;;;;1.53;0.70;;;15.70;17.70;;;;;;5030870;28;37729;-84
2021/03/27 13:01:39;;;;;;;1.73;0.60;;;15.60;17.70;;;;;;5025339;28;39855;-85
2021/03/27 13:04:41;;;;;;;1.70;0.60;;;15.60;17.70;;;;;;5027572;28;39666;-86
2021/03/27 13:07:18;;;;;;;1.70;0.43;;;15.40;16.70;;;;;;5032075;28;38674;-86
2021/03/27 13:10:22;;;;;;;9.90;0.97;;;15.10;16.60;;;;;;5029833;28;36342;-87
2021/03/27 13:13:15;;;;;;;1.57;0.73;;;14.80;17.20;;;;;;5024642;28;39334;-84
2021/03/27 13:16:07;;;;;;;2.90;0.80;;;14.60;17.60;;;;;;5010742;28;38568;-84
2021/03/27 13:18:53;;;;;;;1.07;0.60;;;14.60;18.00;;;;;;5018058;28;37937;-86
2021/03/27 13:21:41;;;;;;;2.80;0.70;;;14.50;18.10;;;;;;5022409;28;37717;-87
2021/03/27 13:24:14;;;;;;;1.67;0.60;;;14.60;18.20;;;;;;5028613;28;39225;-86
2021/03/27 13:26:43;;;;;;;1.53;0.87;;;14.50;18.00;;;;;;5023740;28;39049;-86
2021/03/27 13:29:34;;;;;;;3.00;0.70;;;14.70;18.20;;;;;;5012549;28;37857;-84
2021/03/27 13:32:11;;;;;;;2.23;0.80;;;14.70;18.40;;;;;;5024883;28;37638;-85
2021/03/27 13:34:42;;;;;;;3.47;0.80;;;14.70;17.80;;;;;;5032799;28;39445;-85
2021/03/27 13:37:13;;;;;;;3.73;1.00;;;14.80;18.10;;;;;;5012496;28;39364;-84
2021/03/27 13:39:44;;;;;;;1.10;0.60;;;15.10;18.20;;;;;;5031162;28;38647;-84
2021/03/27 13:42:27;;;;;;;3.50;0.83;;;15.00;17.40;;;;;;5030978;28;35624;-84
2021/03/27 13:45:01;;;;;;;4.93;1.07;;;14.70;18.20;;;;;;5026464;28;41697;-84
2021/03/27 13:47:40;;;;;;;4.97;0.60;;;14.40;17.40;;;;;;5031423;28;39628;-85
2021/03/27 13:50:52;;;;;;;1.33;0.80;;;14.40;17.60;;;;;;5017790;28;36858;-83
2021/03/27 13:53:35;;;;;;;2.83;1.10;;;14.50;17.70;;;;;;5005790;28;36405;-85
2021/03/27 13:56:35;;;;;;;1.00;0.63;;;14.70;18.20;;;;;;5032741;28;40017;-88
2021/03/27 13:59:18;;;;;;;2.27;0.73;;;14.80;17.90;;;;;;4997847;28;38482;-88
2021/03/27 14:02:09;;;;;;;1.73;0.60;;;14.60;17.80;;;;;;5014300;28;37015;-89
2021/03/27 14:04:43;;;;;;;1.47;0.50;;;14.20;18.10;;;;;;5024054;28;38255;-89
2021/03/27 14:07:22;;;;;;;1.57;0.60;;;14.00;18.80;;;;;;5031156;28;38249;-89
2021/03/27 14:09:56;;;;;;;3.47;1.07;;;14.00;18.80;;;;;;5037898;28;39199;-90
2021/03/27 14:12:30;;;;;;;2.40;0.83;;;14.10;18.90;;;;;;5031643;28;38657;-88
2021/03/27 14:15:23;;;;;;;4.10;0.70;;;13.90;19.00;;;;;;5028839;28;37946;-88
2021/03/27 14:18:12;;;;;;;1.03;0.90;;;13.90;19.20;;;;;;5026147;28;38507;-90
2021/03/27 14:20:47;;;;;;;5.70;0.70;;;14.00;19.30;;;;;;5026288;28;38219;-91
2021/03/27 14:23:32;;;;;;;4.77;1.27;;;13.90;19.30;;;;;;5027510;28;39111;-88
2021/03/27 14:26:22;;;;;;;2.40;1.10;;;13.90;19.40;;;;;;5014127;28;38071;-91
2021/03/27 14:28:54;;;;;;;2.00;0.97;;;14.00;19.60;;;;;;5037664;28;38509;-91